createdAt,value
2022-09-20T00:00:11.789Z,101303.22
2022-09-20T00:01:15.999Z,101307.72
2022-09-20T00:02:18.924Z,101308.72
2022-09-20T00:03:20.891Z,101309.72
2022-09-20T00:04:23.853Z,101310.75
2022-09-20T00:05:25.947Z,101302.94
2022-09-20T00:06:31.903Z,101304.09
2022-09-20T00:07:33.876Z,101319.28
2022-09-20T00:08:38.648Z,101318.44
2022-09-20T00:09:41.108Z,101319.44
2022-09-20T00:10:44.306Z,101313.47
2022-09-20T00:11:46.334Z,101317.78
2022-09-20T00:12:50.634Z,101317.97
2022-09-20T00:13:56.095Z,101323.31
2022-09-20T00:14:59.222Z,101319.97
2022-09-20T00:16:05.446Z,101328.81
2022-09-20T00:17:08.481Z,101315.56
2022-09-20T00:18:11.466Z,101325.50
2022-09-20T00:19:19.549Z,101327.50
2022-09-20T00:20:21.512Z,101324.84
2022-09-20T00:21:26.759Z,101323.19
2022-09-20T00:22:28.767Z,101330.53
2022-09-20T00:23:32.195Z,101325.19
2022-09-20T00:24:36.677Z,101328.88
2022-09-20T00:25:39.743Z,101325.56
2022-09-20T00:26:41.844Z,101330.06
2022-09-20T00:27:45.807Z,101326.72
2022-09-20T00:28:49.135Z,101325.94
2022-09-20T00:29:53.279Z,101331.25
2022-09-20T00:30:56.604Z,101329.09
2022-09-20T00:31:59.603Z,101327.94
2022-09-20T00:33:01.643Z,101334.25
2022-09-20T00:34:21.973Z,101326.44
2022-09-20T00:35:25.329Z,101326.63
2022-09-20T00:36:27.391Z,101333.63
2022-09-20T00:37:30.945Z,101326.63
2022-09-20T00:38:33.021Z,101331.13
2022-09-20T00:39:36.032Z,101327.63
2022-09-20T00:40:38.091Z,101327.63
2022-09-20T00:41:41.163Z,101331.28
2022-09-20T00:42:43.232Z,101335.81
2022-09-20T00:43:47.723Z,101330.66
2022-09-20T00:44:58.005Z,101328.00
2022-09-20T00:46:02.798Z,101328.00
2022-09-20T00:47:07.032Z,101330.84
2022-09-20T00:48:14.559Z,101330.00
2022-09-20T00:49:20.710Z,101321.72
2022-09-20T00:50:33.143Z,101319.22
2022-09-20T00:51:38.920Z,101335.69
2022-09-20T00:52:44.942Z,101331.34
2022-09-20T00:53:50.866Z,101336.69
2022-09-20T00:54:54.974Z,101329.69
2022-09-20T00:56:02.580Z,101333.19
2022-09-20T00:57:04.856Z,101327.88
2022-09-20T00:58:08.869Z,101324.38
2022-09-20T00:59:17.413Z,101286.38
2022-09-20T01:00:22.497Z,101322.38
2022-09-20T01:01:24.717Z,101330.53
2022-09-20T01:02:31.604Z,101324.91
2022-09-20T01:03:36.720Z,101340.34
2022-09-20T01:04:42.641Z,101333.34
2022-09-20T01:05:45.344Z,101335.88
2022-09-20T01:06:51.042Z,101334.19
2022-09-20T01:07:53.669Z,101334.19
2022-09-20T01:08:59.190Z,101332.06
2022-09-20T01:10:01.478Z,101329.88
2022-09-20T01:11:04.522Z,101330.69
2022-09-20T01:12:10.010Z,101331.69
2022-09-20T01:13:13.084Z,101331.53
2022-09-20T01:14:17.152Z,101325.53
2022-09-20T01:15:24.513Z,101330.88
2022-09-20T01:16:27.621Z,101330.06
2022-09-20T01:17:33.912Z,101335.22
2022-09-20T01:18:38.212Z,101337.03
2022-09-20T01:19:47.762Z,101332.53
2022-09-20T01:20:52.017Z,101339.69
2022-09-20T01:21:54.686Z,101332.53
2022-09-20T01:23:15.812Z,101337.03
2022-09-20T01:24:28.402Z,101338.69
2022-09-20T01:25:54.551Z,101337.03
2022-09-20T01:27:17.257Z,101330.06
2022-09-20T01:28:21.989Z,101330.06
2022-09-20T01:29:46.347Z,101330.88
2022-09-20T01:31:00.948Z,101330.22
2022-09-20T01:32:09.086Z,101331.03
2022-09-20T01:33:23.956Z,101334.72
2022-09-20T01:34:31.258Z,101334.91
2022-09-20T01:35:36.627Z,101335.72
2022-09-20T01:36:44.569Z,101336.72
2022-09-20T01:38:06.661Z,101338.56
2022-09-20T01:39:12.976Z,101343.88
2022-09-20T01:40:23.356Z,101336.91
2022-09-20T01:41:31.159Z,101338.44
2022-09-20T01:42:38.058Z,101342.41
2022-09-20T01:43:48.504Z,101343.25
2022-09-20T01:45:02.843Z,101350.41
2022-09-20T01:46:22.578Z,101353.06
2022-09-20T01:47:35.217Z,101353.25
2022-09-20T01:48:39.611Z,101349.75
2022-09-20T01:49:53.202Z,101348.91
2022-09-20T01:51:23.351Z,101355.25
2022-09-20T01:53:04.436Z,101353.59
2022-09-20T01:54:58.011Z,101354.41
2022-09-20T01:56:46.061Z,101363.44
2022-09-20T01:58:07.695Z,101359.91
2022-09-20T01:59:45.076Z,101354.59
2022-09-20T02:01:08.357Z,101354.78
2022-09-20T02:02:28.648Z,101358.47
2022-09-20T02:04:05.999Z,101363.13
2022-09-20T02:05:35.229Z,101364.06
2022-09-20T02:06:49.619Z,101365.09
2022-09-20T02:08:08.974Z,101361.59
2022-09-20T02:09:54.713Z,101364.44
2022-09-20T02:11:11.457Z,101357.13
2022-09-20T02:12:33.773Z,101354.97
2022-09-20T02:13:59.408Z,101361.44
2022-09-20T02:15:12.017Z,101359.16
2022-09-20T02:16:30.859Z,101363.31
2022-09-20T02:17:41.887Z,101366.78
2022-09-20T02:19:02.189Z,101366.13
2022-09-20T02:20:33.110Z,101361.63
2022-09-20T02:21:39.126Z,101366.47
2022-09-20T02:22:49.967Z,101366.13
2022-09-20T02:24:00.720Z,101361.81
2022-09-20T02:25:16.276Z,101358.66
2022-09-20T02:26:34.777Z,101374.28
2022-09-20T02:27:47.109Z,101369.97
2022-09-20T02:28:56.247Z,101373.66
2022-09-20T02:30:10.336Z,101366.66
2022-09-20T02:31:22.813Z,101371.13
2022-09-20T02:32:47.469Z,101369.47
2022-09-20T02:34:16.110Z,101369.66
2022-09-20T02:35:30.584Z,101372.31
2022-09-20T02:36:47.881Z,101368.81
2022-09-20T02:38:06.539Z,101370.69
2022-09-20T02:39:14.283Z,101378.81
2022-09-20T02:40:27.722Z,101377.16
2022-09-20T02:41:55.839Z,101382.50
2022-09-20T02:43:04.867Z,101385.16
2022-09-20T02:44:11.983Z,101383.69
2022-09-20T02:45:22.819Z,101381.81
2022-09-20T02:46:29.850Z,101385.50
2022-09-20T02:47:35.448Z,101380.19
2022-09-20T02:48:44.657Z,101387.50
2022-09-20T02:49:59.100Z,101391.81
2022-09-20T02:51:10.805Z,101385.84
2022-09-20T02:52:23.361Z,101388.69
2022-09-20T02:53:38.970Z,101388.84
2022-09-20T02:54:52.693Z,101385.38
2022-09-20T02:56:05.881Z,101390.88
2022-09-20T02:57:16.224Z,101391.03
2022-09-20T02:58:33.399Z,101392.84
2022-09-20T02:59:41.581Z,101392.19
2022-09-20T03:00:53.741Z,101388.69
2022-09-20T03:02:04.881Z,101386.38
2022-09-20T03:03:14.899Z,101396.19
2022-09-20T03:04:39.783Z,101393.69
2022-09-20T03:05:52.305Z,101398.22
2022-09-20T03:07:01.309Z,101390.41
2022-09-20T03:08:21.981Z,101388.72
2022-09-20T03:09:31.201Z,101402.88
2022-09-20T03:10:40.195Z,101405.72
2022-09-20T03:11:50.766Z,101399.53
2022-09-20T03:13:06.428Z,101401.38
2022-09-20T03:14:14.818Z,101404.19
2022-09-20T03:15:27.982Z,101405.56
2022-09-20T03:16:51.925Z,101408.84
2022-09-20T03:18:07.763Z,101414.19
2022-09-20T03:19:19.154Z,101417.84
2022-09-20T03:20:31.309Z,101417.00
2022-09-20T03:21:44.311Z,101413.53
2022-09-20T03:22:58.999Z,101408.34
2022-09-20T03:24:10.351Z,101421.66
2022-09-20T03:25:42.468Z,101413.06
2022-09-20T03:26:56.151Z,101414.03
2022-09-20T03:28:11.038Z,101414.19
2022-09-20T03:29:26.967Z,101412.38
2022-09-20T03:30:46.051Z,101416.88
2022-09-20T03:32:02.602Z,101416.19
2022-09-20T03:33:15.509Z,101413.53
2022-09-20T03:34:36.181Z,101411.88
2022-09-20T03:35:49.413Z,101415.56
2022-09-20T03:37:04.255Z,101406.41
2022-09-20T03:38:19.971Z,101411.22
2022-09-20T03:39:40.201Z,101414.72
2022-09-20T03:40:57.487Z,101408.56
2022-09-20T03:42:14.569Z,101414.72
2022-09-20T03:43:27.495Z,101413.88
2022-09-20T03:44:55.768Z,101407.72
2022-09-20T03:46:13.443Z,101406.56
2022-09-20T03:47:31.982Z,101409.56
2022-09-20T03:48:58.086Z,101410.53
2022-09-20T03:50:17.296Z,101407.88
2022-09-20T03:51:33.777Z,101415.06
2022-09-20T03:52:54.755Z,101407.25
2022-09-20T03:54:19.209Z,101411.22
2022-09-20T03:56:05.008Z,101415.72
2022-09-20T03:57:25.167Z,101415.72
2022-09-20T03:58:45.258Z,101414.06
2022-09-20T04:00:08.718Z,101418.53
2022-09-20T04:01:34.081Z,101416.06
2022-09-20T04:03:10.771Z,101418.88
2022-09-20T04:04:22.948Z,101408.94
2022-09-20T04:05:33.959Z,101415.38
2022-09-20T04:06:58.344Z,101413.91
2022-09-20T04:08:10.203Z,101415.72
2022-09-20T04:09:48.433Z,101431.88
2022-09-20T04:11:02.675Z,101416.25
2022-09-20T04:12:13.775Z,101416.59
2022-09-20T04:13:32.841Z,101426.22
2022-09-20T04:14:44.273Z,101428.03
2022-09-20T04:15:59.325Z,101431.69
2022-09-20T04:17:12.541Z,101438.00
2022-09-20T04:18:28.564Z,101429.38
2022-09-20T04:19:41.396Z,101432.03
2022-09-20T04:20:47.157Z,101431.38
2022-09-20T04:21:56.814Z,101431.53
2022-09-20T04:23:07.711Z,101419.06
2022-09-20T04:24:21.364Z,101429.53
2022-09-20T04:25:29.406Z,101432.00
2022-09-20T04:26:37.735Z,101435.50
2022-09-20T04:27:45.318Z,101434.84
2022-09-20T04:28:54.109Z,101440.16
2022-09-20T04:30:01.005Z,101433.19
2022-09-20T04:31:13.430Z,101441.19
2022-09-20T04:32:24.549Z,101443.84
2022-09-20T04:33:34.864Z,101441.19
2022-09-20T04:35:01.582Z,101439.66
2022-09-20T04:36:30.551Z,101440.66
2022-09-20T04:37:36.731Z,101447.00
2022-09-20T04:38:39.373Z,101446.16
2022-09-20T04:39:52.324Z,101441.84
2022-09-20T04:41:18.089Z,101435.00
2022-09-20T04:43:04.324Z,101435.53
2022-09-20T04:44:30.281Z,101443.16
2022-09-20T04:46:03.245Z,101450.31
2022-09-20T04:47:43.480Z,101452.16
2022-09-20T04:49:19.054Z,101449.63
2022-09-20T04:50:44.139Z,101451.63
2022-09-20T04:52:37.355Z,101457.78
2022-09-20T04:54:05.137Z,101460.44
2022-09-20T04:55:39.577Z,101453.63
2022-09-20T04:56:58.324Z,101448.47
2022-09-20T04:58:33.071Z,101460.75
2022-09-20T04:59:56.552Z,101457.25
2022-09-20T05:01:31.700Z,101462.59
2022-09-20T05:03:16.619Z,101465.25
2022-09-20T05:04:47.309Z,101462.75
2022-09-20T05:06:23.345Z,101455.63
2022-09-20T05:08:10.356Z,101452.44
2022-09-20T05:09:50.333Z,101471.72
2022-09-20T05:11:30.475Z,101466.41
2022-09-20T05:12:48.690Z,101472.06
2022-09-20T05:14:07.639Z,101476.03
2022-09-20T05:15:38.708Z,101473.38
2022-09-20T05:16:50.435Z,101470.56
2022-09-20T05:18:19.556Z,101468.75
2022-09-20T05:19:32.865Z,101481.88
2022-09-20T05:20:51.234Z,101474.56
2022-09-20T05:22:06.672Z,101481.41
2022-09-20T05:23:32.678Z,101471.56
2022-09-20T05:25:12.504Z,101481.88
2022-09-20T05:26:30.352Z,101496.88
2022-09-20T05:27:41.559Z,101490.53
2022-09-20T05:28:57.174Z,101493.03
2022-09-20T05:30:05.329Z,101490.38
2022-09-20T05:31:14.715Z,101494.72
2022-09-20T05:32:25.140Z,101494.53
2022-09-20T05:33:37.976Z,101495.38
2022-09-20T05:34:51.265Z,101493.03
2022-09-20T05:36:05.713Z,101495.03
2022-09-20T05:37:17.150Z,101490.53
2022-09-20T05:39:37.157Z,101497.38
2022-09-20T05:41:10.323Z,101499.03
2022-09-20T05:42:18.699Z,101506.03
2022-09-20T05:43:28.761Z,101497.19
2022-09-20T05:45:00.830Z,101500.19
2022-09-20T05:46:15.031Z,101501.03
2022-09-20T05:47:23.340Z,101500.03
2022-09-20T05:48:36.749Z,101499.69
2022-09-20T05:49:55.730Z,101501.38
2022-09-20T05:51:03.842Z,101499.69
2022-09-20T05:52:22.649Z,101502.69
2022-09-20T05:53:55.483Z,101498.03
2022-09-20T05:55:15.671Z,101502.22
2022-09-20T05:56:30.261Z,101509.03
2022-09-20T05:57:48.550Z,101497.41
2022-09-20T05:59:09.053Z,101508.38
2022-09-20T06:00:16.249Z,101508.03
2022-09-20T06:01:24.428Z,101507.88
2022-09-20T06:02:38.217Z,101500.06
2022-09-20T06:03:45.556Z,101515.19
2022-09-20T06:04:58.063Z,101513.38
2022-09-20T06:06:09.711Z,101516.53
2022-09-20T06:07:26.527Z,101520.66
2022-09-20T06:08:50.202Z,101513.53
2022-09-20T06:10:24.649Z,101520.03
2022-09-20T06:11:54.447Z,101525.84
2022-09-20T06:13:04.169Z,101524.50
2022-09-20T06:14:21.051Z,101520.00
2022-09-20T06:15:33.262Z,101525.66
2022-09-20T06:16:44.629Z,101519.00
2022-09-20T06:17:54.215Z,101522.97
2022-09-20T06:19:05.146Z,101527.97
2022-09-20T06:20:19.493Z,101522.31
2022-09-20T06:21:33.016Z,101518.47
2022-09-20T06:22:41.385Z,101524.31
2022-09-20T06:23:44.096Z,101515.16
2022-09-20T06:24:50.159Z,101517.31
2022-09-20T06:25:57.271Z,101523.94
2022-09-20T06:27:03.072Z,101518.50
2022-09-20T06:28:11.285Z,101523.47
2022-09-20T06:29:17.571Z,101513.00
2022-09-20T06:30:25.665Z,101526.28
2022-09-20T06:31:27.766Z,101527.59
2022-09-20T06:32:31.902Z,101530.91
2022-09-20T06:33:33.863Z,101524.25
2022-09-20T06:34:37.539Z,101520.25
2022-09-20T06:35:46.551Z,101525.41
2022-09-20T06:37:12.054Z,101528.53
2022-09-20T06:38:56.643Z,101529.69
2022-09-20T06:40:21.625Z,101529.16
2022-09-20T06:41:30.629Z,101527.84
2022-09-20T06:42:33.576Z,101532.66
2022-09-20T06:43:40.416Z,101536.81
2022-09-20T06:44:43.452Z,101531.97
2022-09-20T06:45:45.557Z,101532.47
2022-09-20T06:46:48.722Z,101533.94
2022-09-20T06:47:50.793Z,101539.75
2022-09-20T06:48:55.265Z,101537.56
2022-09-20T06:49:58.958Z,101346.47
2022-09-20T06:51:03.813Z,101540.38
2022-09-20T06:52:06.768Z,101549.69
2022-09-20T06:53:11.538Z,101546.69
2022-09-20T06:54:19.408Z,101547.97
2022-09-20T06:55:29.263Z,101553.63
2022-09-20T06:56:36.877Z,101554.94
2022-09-20T06:57:39.029Z,101553.59
2022-09-20T06:58:41.943Z,101554.88
2022-09-20T06:59:44.175Z,101556.56
2022-09-20T07:00:48.279Z,101561.00
2022-09-20T07:01:50.393Z,101557.00
2022-09-20T07:02:53.969Z,101560.13
2022-09-20T07:03:56.881Z,101569.25
2022-09-20T07:04:59.712Z,101566.25
2022-09-20T07:06:04.434Z,101565.72
2022-09-20T07:07:09.742Z,101566.03
2022-09-20T07:08:12.628Z,101570.16
2022-09-20T07:09:15.579Z,101570.44
2022-09-20T07:10:17.597Z,101566.44
2022-09-20T07:11:21.189Z,101566.91
2022-09-20T07:12:23.225Z,101568.19
2022-09-20T07:13:26.584Z,101569.50
2022-09-20T07:14:28.581Z,101565.47
2022-09-20T07:15:33.800Z,101567.13
2022-09-20T07:16:37.262Z,101571.75
2022-09-20T07:17:40.285Z,101572.22
2022-09-20T07:18:43.659Z,101574.38
2022-09-20T07:19:46.595Z,101575.66
2022-09-20T07:20:48.543Z,101568.97
2022-09-20T07:21:52.852Z,101571.09
2022-09-20T07:22:54.883Z,101574.25
2022-09-20T07:23:58.023Z,101575.56
2022-09-20T07:25:02.430Z,101576.84
2022-09-20T07:26:05.590Z,101577.31
2022-09-20T07:27:07.656Z,101576.94
2022-09-20T07:28:10.752Z,101579.88
2022-09-20T07:29:12.967Z,101579.09
2022-09-20T07:30:20.270Z,101581.47
2022-09-20T07:31:25.749Z,101579.28
2022-09-20T07:32:28.759Z,101584.91
2022-09-20T07:33:33.199Z,101582.88
2022-09-20T07:34:36.175Z,101568.75
2022-09-20T07:35:39.226Z,101591.47
2022-09-20T07:36:41.183Z,101583.91
2022-09-20T07:37:48.342Z,101589.72
2022-09-20T07:38:56.304Z,101591.19
2022-09-20T07:39:58.616Z,101587.59
2022-09-20T07:41:04.272Z,101577.69
2022-09-20T07:42:08.766Z,101588.22
2022-09-20T07:43:12.136Z,101591.63
2022-09-20T07:44:30.209Z,101605.47
2022-09-20T07:45:34.238Z,101596.88
2022-09-20T07:46:39.109Z,101598.34
2022-09-20T07:47:44.926Z,101589.69
2022-09-20T07:48:48.033Z,101588.56
2022-09-20T07:49:55.915Z,101592.50
2022-09-20T07:51:00.475Z,101605.38
2022-09-20T07:52:03.520Z,101604.13
2022-09-20T07:53:14.351Z,101602.56
2022-09-20T07:54:18.117Z,101601.72
2022-09-20T07:55:21.414Z,101605.31
2022-09-20T07:56:24.840Z,101603.94
2022-09-20T07:57:28.925Z,101600.22
2022-09-20T07:58:34.511Z,101620.69
2022-09-20T07:59:39.442Z,101598.47
2022-09-20T08:00:42.351Z,101611.72
2022-09-20T08:01:44.649Z,101612.38
2022-09-20T08:02:47.758Z,101614.28
2022-09-20T08:03:50.004Z,101614.78
2022-09-20T08:04:52.930Z,101615.22
2022-09-20T08:05:59.551Z,101614.84
2022-09-20T08:07:02.528Z,101620.47
2022-09-20T08:08:06.030Z,101619.25
2022-09-20T08:09:11.342Z,101617.03
2022-09-20T08:10:14.486Z,101610.25
2022-09-20T08:11:19.499Z,101614.22
2022-09-20T08:15:12.257Z,101624.88
2022-09-20T08:16:14.891Z,101624.28
2022-09-20T08:17:17.942Z,101619.38
2022-09-20T08:18:19.950Z,101610.94
2022-09-20T08:19:24.150Z,101621.09
2022-09-20T08:20:26.331Z,101614.31
2022-09-20T08:21:32.656Z,101619.31
2022-09-20T08:22:35.609Z,101615.19
2022-09-20T08:23:40.763Z,101618.50
2022-09-20T08:24:44.184Z,101618.13
2022-09-20T08:25:47.344Z,101618.56
2022-09-20T08:26:50.354Z,101615.47
2022-09-20T08:27:54.525Z,101623.13
2022-09-20T08:28:59.299Z,101621.94
2022-09-20T08:30:02.238Z,101624.22
2022-09-20T08:31:06.029Z,101620.13
2022-09-20T08:32:09.047Z,101618.88
2022-09-20T08:33:13.157Z,101613.13
2022-09-20T08:34:18.398Z,101620.81
2022-09-20T08:35:22.506Z,101615.88
2022-09-20T08:36:27.566Z,101617.97
2022-09-20T08:37:32.859Z,101622.09
2022-09-20T08:40:00.470Z,101619.28
2022-09-20T08:41:05.858Z,101618.03
2022-09-20T08:42:20.014Z,101625.50
2022-09-20T08:43:22.986Z,101617.25
2022-09-20T08:44:29.715Z,101620.56
2022-09-20T08:45:36.822Z,101625.56
2022-09-20T08:46:43.327Z,101627.66
2022-09-20T08:47:52.461Z,101629.94
2022-09-20T08:48:57.695Z,101622.31
2022-09-20T08:50:09.158Z,101631.81
2022-09-20T08:51:22.360Z,101632.69
2022-09-20T08:52:35.889Z,101634.81
2022-09-20T08:53:49.077Z,101637.88
2022-09-20T08:54:51.499Z,101642.69
2022-09-20T08:55:57.818Z,101633.38
2022-09-20T08:57:05.338Z,101640.88
2022-09-20T08:58:13.591Z,101643.94
2022-09-20T08:59:20.004Z,101643.56
2022-09-20T09:00:25.336Z,101637.78
2022-09-20T09:01:31.680Z,101644.22
2022-09-20T09:02:34.712Z,101639.25
2022-09-20T10:29:47.307Z,101655.06
2022-09-20T10:30:58.374Z,101656.91
2022-09-20T10:32:14.586Z,101659.38
2022-09-20T10:33:29.469Z,101667.69
2022-09-20T10:34:55.959Z,101667.28
2022-09-20T10:36:12.468Z,101668.97
2022-09-20T10:37:25.347Z,101674.78
2022-09-20T10:38:34.246Z,101673.09
2022-09-20T10:39:39.807Z,101659.22
2022-09-20T10:41:31.016Z,101663.78
2022-09-20T10:43:00.847Z,101665.22
2022-09-20T10:44:13.111Z,101653.19
2022-09-20T10:45:50.919Z,101665.19
2022-09-20T10:46:55.519Z,101660.00
2022-09-20T10:48:07.255Z,101663.72
2022-09-20T10:49:23.865Z,101663.91
2022-09-20T10:50:34.271Z,101661.41
2022-09-20T10:51:49.229Z,101673.63
2022-09-20T10:53:27.197Z,101664.94
2022-09-20T10:54:47.034Z,101662.66
2022-09-20T10:55:59.252Z,101667.16
2022-09-20T10:57:17.206Z,101667.97
2022-09-20T10:58:49.094Z,101662.13
2022-09-20T10:59:58.393Z,101667.66
2022-09-20T11:01:17.624Z,101671.53
2022-09-20T11:02:47.559Z,101669.81
2022-09-20T11:04:21.917Z,101662.91
2022-09-20T11:05:35.714Z,101672.06
2022-09-20T11:06:49.302Z,101680.66
2022-09-20T11:08:02.274Z,101673.00
2022-09-20T11:09:13.878Z,101686.13
2022-09-20T11:10:24.287Z,101675.41
2022-09-20T11:11:32.867Z,101679.81
2022-09-20T11:12:39.652Z,101675.72
2022-09-20T11:13:49.525Z,101678.63
2022-09-20T11:14:56.123Z,101683.03
2022-09-20T11:16:06.027Z,101678.28
2022-09-20T11:17:13.729Z,101681.81
2022-09-20T11:18:23.549Z,101684.31
2022-09-20T11:19:34.581Z,101681.00
2022-09-20T11:20:44.221Z,101678.94
2022-09-20T11:21:53.399Z,101671.88
2022-09-20T11:23:01.176Z,101680.16
2022-09-20T11:24:12.897Z,101675.78
2022-09-20T11:25:21.525Z,101678.03
2022-09-20T11:26:33.281Z,101673.47
2022-09-20T11:27:40.897Z,101672.84
2022-09-20T11:28:49.019Z,101675.53
2022-09-20T11:29:56.180Z,101684.41
2022-09-20T11:31:08.383Z,101669.50
2022-09-20T11:32:18.570Z,101672.97
2022-09-20T11:33:25.917Z,101679.56
2022-09-20T11:34:33.057Z,101680.97
2022-09-20T11:35:38.820Z,101678.03
2022-09-20T11:36:53.048Z,101678.59
2022-09-20T11:38:07.485Z,101672.13
2022-09-20T11:39:15.723Z,101672.91
2022-09-20T11:40:27.819Z,101674.09
2022-09-20T11:41:31.022Z,101688.00
2022-09-20T11:42:37.066Z,101681.97
2022-09-20T11:43:42.781Z,101677.88
2022-09-20T11:44:45.981Z,101683.09
2022-09-20T11:45:55.943Z,101683.34
2022-09-20T11:47:04.191Z,101684.41
2022-09-20T11:48:12.491Z,101688.44
2022-09-20T11:49:18.307Z,101684.53
2022-09-20T11:50:45.780Z,101680.84
2022-09-20T11:52:10.380Z,101683.59
2022-09-20T11:53:31.150Z,101682.13
2022-09-20T11:55:03.937Z,101678.44
2022-09-20T11:56:12.239Z,101691.13
2022-09-20T11:57:17.194Z,101685.75
2022-09-20T11:58:22.387Z,101685.56
2022-09-20T11:59:31.269Z,101686.16
2022-09-20T12:00:37.695Z,101690.75
2022-09-20T12:01:44.187Z,101694.88
2022-09-20T12:02:51.328Z,101688.84
2022-09-20T12:04:14.305Z,101683.44
2022-09-20T12:05:33.642Z,101680.50
2022-09-20T12:06:39.636Z,101682.75
2022-09-20T12:07:44.800Z,101685.44
2022-09-20T12:08:51.557Z,101683.72
2022-09-20T12:09:59.086Z,101684.72
2022-09-20T12:11:05.388Z,101681.09
2022-09-20T12:12:18.488Z,101676.69
2022-09-20T12:13:25.525Z,101680.34
2022-09-20T12:14:29.211Z,101684.22
2022-09-20T12:15:34.050Z,101692.66
2022-09-20T12:16:39.755Z,101689.06
2022-09-20T12:18:09.235Z,101683.25
2022-09-20T12:19:14.079Z,101693.81
2022-09-20T12:20:55.332Z,101692.34
2022-09-20T12:22:18.179Z,101692.84
2022-09-20T12:23:45.901Z,101694.34
2022-09-20T12:25:27.223Z,101701.50
2022-09-20T12:26:56.279Z,101690.59
2022-09-20T12:27:58.509Z,101695.00
2022-09-20T12:29:06.011Z,101687.34
2022-09-20T12:30:18.652Z,101685.69
2022-09-20T12:31:38.778Z,101693.34
2022-09-20T12:32:48.260Z,101692.06
2022-09-20T12:34:01.011Z,101690.59
2022-09-20T12:35:58.236Z,101692.88
2022-09-20T12:37:25.039Z,101694.09
2022-09-20T12:38:39.199Z,101697.19
2022-09-20T12:39:52.698Z,101692.19
2022-09-20T12:41:03.380Z,101690.53
2022-09-20T12:42:07.813Z,101692.59
2022-09-20T12:43:17.550Z,101692.38
2022-09-20T12:44:37.963Z,101698.16
2022-09-20T12:45:39.949Z,101690.06
2022-09-20T12:46:52.385Z,101698.75
2022-09-20T12:47:56.501Z,101689.63
2022-09-20T12:49:49.487Z,101694.81
2022-09-20T12:51:21.226Z,101694.59
2022-09-20T12:52:49.735Z,101686.88
2022-09-20T12:54:02.064Z,101693.28
2022-09-20T12:55:10.264Z,101684.50
2022-09-20T12:56:20.600Z,101688.41
2022-09-20T12:57:32.418Z,101689.94
2022-09-20T12:58:45.113Z,101685.88
2022-09-20T12:59:56.062Z,101684.34
2022-09-20T13:01:31.890Z,101683.34
2022-09-20T13:03:00.344Z,101683.00
2022-09-20T13:04:47.458Z,101689.38
2022-09-20T13:05:52.609Z,101694.50
2022-09-20T13:07:44.091Z,101693.78
2022-09-20T13:08:53.734Z,101696.72
2022-09-20T13:09:55.970Z,101692.94
2022-09-20T13:11:02.706Z,101690.22
2022-09-20T13:12:05.582Z,101690.88
2022-09-20T13:13:32.532Z,101688.09
2022-09-20T13:14:34.840Z,101699.72
2022-09-20T13:15:39.412Z,101691.94
2022-09-20T13:16:52.050Z,101682.66
2022-09-20T13:17:56.437Z,101691.63
2022-09-20T13:19:05.308Z,101694.22
2022-09-20T13:20:19.181Z,101694.13
2022-09-20T13:21:23.203Z,101699.44
2022-09-20T13:22:28.202Z,101703.91
2022-09-20T13:23:34.151Z,101700.47
2022-09-20T13:24:42.144Z,101705.34
2022-09-20T13:25:44.662Z,101700.72
2022-09-20T13:26:50.488Z,101707.69
2022-09-20T13:28:00.912Z,101707.81
2022-09-20T13:29:07.834Z,101708.44
2022-09-20T13:30:14.772Z,101701.81
2022-09-20T13:31:29.395Z,101702.28
2022-09-20T13:32:32.305Z,101701.19
2022-09-20T13:33:35.557Z,101699.00
2022-09-20T13:34:37.493Z,101705.47
2022-09-20T13:35:41.862Z,101686.31
2022-09-20T13:36:44.879Z,101704.56
2022-09-20T13:37:54.182Z,101704.63
2022-09-20T13:38:57.830Z,101706.91
2022-09-20T13:40:03.715Z,101711.91
2022-09-20T13:41:09.175Z,101704.84
2022-09-20T13:42:19.723Z,101712.34
2022-09-20T13:43:28.340Z,101709.03
2022-09-20T13:44:34.379Z,101710.91
2022-09-20T13:45:37.440Z,101702.81
2022-09-20T13:46:45.719Z,101698.69
2022-09-20T13:47:52.479Z,101696.63
2022-09-20T13:49:08.372Z,101705.72
2022-09-20T13:50:19.077Z,101698.06
2022-09-20T13:51:25.375Z,101699.50
2022-09-20T13:52:31.178Z,101700.31
2022-09-20T13:53:41.925Z,101698.69
2022-09-20T13:54:45.249Z,101700.31
2022-09-20T13:55:49.014Z,101700.94
2022-09-20T13:56:52.566Z,101697.63
2022-09-20T13:57:56.659Z,101701.97
2022-09-20T13:59:05.851Z,101709.03
2022-09-20T14:00:15.385Z,101703.63
2022-09-20T14:01:23.517Z,101701.97
2022-09-20T14:02:30.983Z,101714.88
2022-09-20T14:03:37.050Z,101712.00
2022-09-20T14:04:40.506Z,101711.00
2022-09-20T14:05:47.062Z,101715.38
2022-09-20T14:06:51.352Z,101706.94
2022-09-20T14:07:54.341Z,101720.88
2022-09-20T14:09:00.040Z,101710.94
2022-09-20T14:10:03.044Z,101714.28
2022-09-20T14:11:12.471Z,101711.19
2022-09-20T14:12:15.678Z,101708.91
2022-09-20T14:13:18.672Z,101710.59
2022-09-20T14:14:24.158Z,101707.88
2022-09-20T14:15:30.253Z,101707.66
2022-09-20T14:16:35.906Z,101714.06
2022-09-20T14:17:39.599Z,101711.97
2022-09-20T14:18:43.178Z,101710.72
2022-09-20T14:19:49.662Z,101704.06
2022-09-20T14:20:53.255Z,101707.09
2022-09-20T14:21:57.704Z,101710.81
2022-09-20T14:22:59.894Z,101717.22
2022-09-20T14:24:07.687Z,101716.41
2022-09-20T14:25:22.070Z,101713.91
2022-09-20T14:26:30.168Z,101713.75
2022-09-20T14:27:32.706Z,101714.19
2022-09-20T14:28:35.678Z,101712.94
2022-09-20T14:29:40.406Z,101716.31
2022-09-20T14:30:43.629Z,101711.34
2022-09-20T14:31:48.331Z,101713.47
2022-09-20T14:32:55.259Z,101718.06
2022-09-20T14:33:59.850Z,101718.09
2022-09-20T14:35:06.201Z,101726.81
2022-09-20T14:36:14.625Z,101716.28
2022-09-20T14:37:23.473Z,101726.03
2022-09-20T14:38:27.873Z,101723.16
2022-09-20T14:39:29.860Z,101714.06
2022-09-20T14:40:41.974Z,101713.88
2022-09-20T14:41:46.573Z,101710.13
2022-09-20T14:42:52.730Z,101725.88
2022-09-20T14:43:57.122Z,101730.03
2022-09-20T14:45:00.334Z,101715.97
2022-09-20T14:46:05.524Z,101721.34
2022-09-20T14:47:14.407Z,101727.53
2022-09-20T14:48:35.614Z,101724.63
2022-09-20T14:49:44.320Z,101715.53
2022-09-20T14:51:07.717Z,101724.03
2022-09-20T14:52:34.892Z,101709.09
2022-09-20T14:53:38.399Z,101708.69
2022-09-20T14:54:41.254Z,101712.19
2022-09-20T14:55:57.726Z,101720.47
2022-09-20T14:57:02.321Z,101719.44
2022-09-20T14:58:09.784Z,101708.25
2022-09-20T14:59:37.678Z,101713.19
2022-09-20T15:00:48.207Z,101718.78
2022-09-20T15:02:02.971Z,101712.72
2022-09-20T15:03:08.429Z,101721.22
2022-09-20T15:04:20.977Z,101713.75
2022-09-20T15:05:26.288Z,101717.69
2022-09-20T15:06:29.327Z,101722.88
2022-09-20T15:07:31.449Z,101719.91
2022-09-20T15:08:36.212Z,101722.81